createdAt,value
2019-06-07T00:00:00.133Z,15
2019-06-07T00:05:00.172Z,14.81
2019-06-07T00:10:00.075Z,14.81
2019-06-07T00:15:00.107Z,14.88
2019-06-07T00:20:00.098Z,14.75
2019-06-07T00:25:00.096Z,14.63
2019-06-07T00:30:00.102Z,14.5
2019-06-07T00:35:00.118Z,14.56
2019-06-07T00:40:13.815Z,14.75
2019-06-07T00:45:00.113Z,14.56
2019-06-07T00:50:00.116Z,14.25
2019-06-07T00:55:00.061Z,13.94
2019-06-07T01:00:00.108Z,13.81
2019-06-07T01:05:00.088Z,13.81
2019-06-07T01:10:00.112Z,13.88
2019-06-07T01:15:00.218Z,14
2019-06-07T01:20:00.106Z,13.88
2019-06-07T01:25:00.099Z,13.88
2019-06-07T01:30:00.102Z,13.88
2019-06-07T01:35:00.116Z,14
2019-06-07T01:40:00.143Z,14
2019-06-07T01:45:00.174Z,13.94
2019-06-07T01:50:00.101Z,13.94
2019-06-07T01:55:00.155Z,13.88
2019-06-07T02:00:00.138Z,13.94
2019-06-07T02:05:00.103Z,14
2019-06-07T02:10:00.060Z,13.94
2019-06-07T02:15:00.112Z,13.88
2019-06-07T02:20:00.131Z,13.88
2019-06-07T02:25:34.367Z,13.88
2019-06-07T02:30:00.211Z,13.88
2019-06-07T02:35:00.059Z,13.94
2019-06-07T02:40:00.104Z,14
2019-06-07T02:45:00.081Z,14
2019-06-07T02:50:00.092Z,13.94
2019-06-07T02:55:00.095Z,13.75
2019-06-07T03:00:07.481Z,13.81
2019-06-07T03:05:00.102Z,13.75
2019-06-07T03:10:00.091Z,13.75
2019-06-07T03:15:00.099Z,13.81
2019-06-07T03:20:00.143Z,13.88
2019-06-07T03:25:00.251Z,13.94
2019-06-07T03:30:00.081Z,13.94
2019-06-07T03:35:00.107Z,13.88
2019-06-07T03:40:00.105Z,14
2019-06-07T03:45:00.124Z,13.94
2019-06-07T03:50:00.096Z,14
2019-06-07T03:55:00.111Z,14
2019-06-07T04:00:00.103Z,14
2019-06-07T04:05:00.104Z,14
2019-06-07T04:10:00.117Z,13.94
2019-06-07T04:15:00.099Z,14
2019-06-07T04:20:00.121Z,14.06
2019-06-07T04:25:00.126Z,14.19
2019-06-07T04:30:07.013Z,14.19
2019-06-07T04:35:00.111Z,14.31
2019-06-07T04:40:00.103Z,14.44
2019-06-07T04:45:00.115Z,14.44
2019-06-07T04:50:00.111Z,14.44
2019-06-07T04:55:00.094Z,14.44
2019-06-07T05:00:12.598Z,14.5
2019-06-07T05:05:00.095Z,14.56
2019-06-07T05:10:00.128Z,14.56
2019-06-07T05:15:00.069Z,14.69
2019-06-07T05:20:00.116Z,15.19
2019-06-07T05:25:00.108Z,15.63
2019-06-07T05:30:09.382Z,15.63
2019-06-07T05:35:00.096Z,16.19
2019-06-07T05:40:00.120Z,16.31
2019-06-07T05:45:00.123Z,17
2019-06-07T05:50:00.115Z,17
2019-06-07T05:55:00.096Z,17.25
2019-06-07T06:00:00.105Z,17.63
2019-06-07T06:05:00.107Z,17.75
2019-06-07T06:10:00.060Z,17.56
2019-06-07T06:15:00.110Z,18.31
2019-06-07T06:20:00.115Z,18.88
2019-06-07T06:25:30.464Z,19.94
2019-06-07T06:30:00.177Z,22.31
2019-06-07T06:35:00.100Z,23.81
2019-06-07T06:40:00.111Z,23.88
2019-06-07T06:45:00.106Z,24.31
2019-06-07T06:50:00.107Z,24.13
2019-06-07T06:55:01.157Z,24.38
2019-06-07T07:00:00.111Z,24.19
2019-06-07T07:05:00.087Z,22.5
2019-06-07T07:10:00.281Z,21.5
2019-06-07T07:15:00.121Z,22.31
2019-06-07T07:20:00.124Z,22.13
2019-06-07T07:25:00.109Z,20.5
2019-06-07T07:30:34.606Z,19.94
2019-06-07T07:35:00.777Z,19.13
2019-06-07T07:40:09.395Z,19.13
2019-06-07T07:45:00.108Z,20.19
2019-06-07T07:50:00.125Z,20.31
2019-06-07T07:55:00.124Z,20
2019-06-07T08:00:25.509Z,20
2019-06-07T08:05:20.852Z,21.06
2019-06-07T08:10:03.783Z,20.81
2019-06-07T08:15:03.209Z,22.06
2019-06-07T08:20:02.783Z,23.38
2019-06-07T08:25:04.079Z,24
2019-06-07T08:30:25.630Z,23.31
2019-06-07T08:35:05.769Z,23
2019-06-07T08:40:01.785Z,22.44
2019-06-07T08:45:03.515Z,22.06
2019-06-07T08:50:06.253Z,21.69
2019-06-07T08:55:04.443Z,21.56
2019-06-07T09:00:07.016Z,20.81
2019-06-07T09:05:06.705Z,20.63
2019-06-07T09:10:08.253Z,20.94
2019-06-07T09:15:14.409Z,21.31
2019-06-07T09:20:06.282Z,21
2019-06-07T09:25:02.667Z,21.13
2019-06-07T09:30:03.081Z,21.44
2019-06-07T09:35:05.261Z,22.38
2019-06-07T09:40:10.181Z,22.75
2019-06-07T09:45:01.070Z,22.31
2019-06-07T09:50:05.861Z,22.5
2019-06-07T09:55:10.448Z,22.44
2019-06-07T10:00:02.522Z,22.44
2019-06-07T10:05:02.197Z,22.75
2019-06-07T10:15:00.609Z,21.63
2019-06-07T10:20:02.020Z,21.38
2019-06-07T10:25:00.150Z,21.25
2019-06-07T10:30:00.295Z,21.75
2019-06-07T10:35:00.489Z,21.19
2019-06-07T10:40:00.590Z,21.06
2019-06-07T10:45:02.310Z,20.88
2019-06-07T10:50:00.110Z,21.31
2019-06-07T10:55:00.071Z,21.94
2019-06-07T11:00:00.104Z,22.13
2019-06-07T11:05:00.105Z,22.25
2019-06-07T11:10:06.830Z,22.13
2019-06-07T11:15:00.069Z,21.75
2019-06-07T11:20:00.133Z,21.63
2019-06-07T11:25:00.160Z,21.75
2019-06-07T11:30:00.103Z,21.75
2019-06-07T11:35:00.064Z,21.94
2019-06-07T11:40:00.127Z,21.81
2019-06-07T11:45:00.108Z,21.31
2019-06-07T11:50:00.094Z,21.31
2019-06-07T11:55:00.123Z,21.44
2019-06-07T12:00:00.102Z,21.56
2019-06-07T12:05:00.107Z,21.81
2019-06-07T12:10:00.114Z,22
2019-06-07T12:15:00.069Z,22.44
2019-06-07T12:20:00.102Z,21.88
2019-06-07T12:25:00.111Z,21.75
2019-06-07T12:30:00.093Z,21.81
2019-06-07T12:35:00.066Z,22.19
2019-06-07T12:40:00.102Z,22.38
2019-06-07T12:45:00.099Z,22.56
2019-06-07T12:50:00.146Z,23
2019-06-07T12:55:00.108Z,22.5
2019-06-07T13:00:00.115Z,22.06
2019-06-07T13:05:04.258Z,21.81
2019-06-07T13:10:00.106Z,22.44
2019-06-07T13:15:00.102Z,23
2019-06-07T13:20:00.102Z,22.69
2019-06-07T13:25:00.062Z,22.31
2019-06-07T13:30:00.118Z,22.63
2019-06-07T13:35:00.115Z,23.13
2019-06-07T13:40:00.111Z,23.25
2019-06-07T13:45:00.094Z,23.38
2019-06-07T13:50:00.066Z,22.88
2019-06-07T13:55:02.215Z,22.5
2019-06-07T14:00:00.118Z,22.31
2019-06-07T14:05:00.159Z,22.44
2019-06-07T14:10:00.137Z,22.63
2019-06-07T14:15:00.101Z,22.5
2019-06-07T14:20:00.107Z,22.56
2019-06-07T14:25:00.123Z,22.56
2019-06-07T14:30:00.096Z,22.69
2019-06-07T14:35:00.112Z,22.69
2019-06-07T14:40:00.107Z,22.88
2019-06-07T14:45:05.019Z,23.06
2019-06-07T14:50:00.113Z,23.19
2019-06-07T14:55:00.099Z,23.19
2019-06-07T15:00:00.071Z,23.31
2019-06-07T15:05:00.115Z,23.44
2019-06-07T15:10:00.124Z,23.38
2019-06-07T15:15:00.102Z,23.38
2019-06-07T15:20:00.090Z,23.25
2019-06-07T15:25:00.110Z,23.38
2019-06-07T15:30:00.117Z,23.38
2019-06-07T15:35:00.143Z,23.38
2019-06-07T15:40:00.106Z,23.44
2019-06-07T15:45:00.118Z,23.5
2019-06-07T15:50:00.080Z,23.38
2019-06-07T15:55:00.129Z,23.38
2019-06-07T16:00:00.103Z,23.25
2019-06-07T16:05:00.116Z,23.25
2019-06-07T16:10:00.093Z,23.25
2019-06-07T16:15:00.092Z,23.38
2019-06-07T16:20:00.145Z,23.31
2019-06-07T16:25:00.099Z,23.5
2019-06-07T16:30:00.114Z,23.63
2019-06-07T16:35:00.102Z,23.44
2019-06-07T16:40:00.068Z,23.44
2019-06-07T16:45:00.108Z,23.44
2019-06-07T16:50:00.100Z,23.5
2019-06-07T16:55:00.112Z,23.69
2019-06-07T17:00:00.117Z,23.75
2019-06-07T17:05:00.105Z,23.69
2019-06-07T17:10:00.107Z,23.63
2019-06-07T17:15:00.110Z,23.56
2019-06-07T17:20:00.121Z,23.63
2019-06-07T17:25:00.110Z,23.56
2019-06-07T17:30:00.109Z,23.56
2019-06-07T17:35:00.120Z,23.63
2019-06-07T17:40:00.115Z,23.56
2019-06-07T17:45:00.091Z,23.56
2019-06-07T17:50:00.120Z,23.44
2019-06-07T17:55:00.154Z,23.31
2019-06-07T18:00:00.104Z,23.19
2019-06-07T18:05:00.111Z,23.06
2019-06-07T18:10:00.112Z,23
2019-06-07T18:15:00.102Z,22.88
2019-06-07T18:20:00.113Z,22.81
2019-06-07T18:25:00.096Z,22.75
2019-06-07T18:30:00.089Z,22.69
2019-06-07T18:35:00.392Z,22.63
2019-06-07T18:40:00.400Z,22.56
2019-06-07T18:45:00.107Z,22.5
2019-06-07T18:50:00.117Z,22.38
2019-06-07T18:55:00.122Z,22.25
2019-06-07T19:00:00.104Z,22.13
2019-06-07T19:05:00.123Z,22
2019-06-07T19:10:00.107Z,21.94
2019-06-07T19:15:00.120Z,21.81
2019-06-07T19:20:00.625Z,21.69
2019-06-07T19:25:00.537Z,21.5
2019-06-07T19:30:01.007Z,21.44
2019-06-07T19:35:00.118Z,21.31
2019-06-07T19:40:00.169Z,21.19
2019-06-07T19:45:24.285Z,21.06
2019-06-07T19:50:00.897Z,21
2019-06-07T19:55:01.390Z,20.88
2019-06-07T20:00:00.102Z,20.81
2019-06-07T20:05:03.671Z,20.69
2019-06-07T20:10:00.641Z,20.63
2019-06-07T20:15:18.407Z,20.56
2019-06-07T20:20:00.463Z,20.44
2019-06-07T20:25:00.811Z,20.38
2019-06-07T20:30:00.208Z,20.31
2019-06-07T20:35:00.080Z,20.19
2019-06-07T20:40:07.040Z,20.13
2019-06-07T20:45:00.116Z,19.94
2019-06-07T20:50:00.159Z,19.94
2019-06-07T20:55:00.532Z,19.81
2019-06-07T21:00:00.928Z,19.75
2019-06-07T21:05:01.088Z,19.63
2019-06-07T21:10:01.587Z,19.56
2019-06-07T21:15:04.144Z,19.5
2019-06-07T21:20:00.501Z,19.56
2019-06-07T21:25:00.651Z,19.56
2019-06-07T21:30:01.011Z,19.56
2019-06-07T21:35:00.118Z,19.56
2019-06-07T21:40:00.110Z,19.63
2019-06-07T21:45:00.126Z,19.63
2019-06-07T21:50:00.065Z,19.63
2019-06-07T21:55:00.111Z,19.56
2019-06-07T22:00:00.108Z,19.5
2019-06-07T22:05:00.115Z,19.44
2019-06-07T22:10:00.125Z,19.31
2019-06-07T22:15:00.064Z,19.19
2019-06-07T22:20:00.105Z,19.13
2019-06-07T22:25:00.107Z,19.06
2019-06-07T22:30:00.115Z,19
2019-06-07T22:35:00.142Z,19.06
2019-06-07T22:40:00.113Z,19.31
2019-06-07T22:45:00.119Z,19.38
2019-06-07T22:50:00.107Z,19.5
2019-06-07T22:55:00.106Z,19.25
2019-06-07T23:00:00.092Z,19.13
2019-06-07T23:05:04.001Z,18.88
2019-06-07T23:10:00.072Z,18.75
2019-06-07T23:15:00.061Z,18.63
2019-06-07T23:20:00.128Z,18.5
2019-06-07T23:25:00.115Z,18.38
2019-06-07T23:30:00.056Z,18.31
2019-06-07T23:35:00.113Z,18.25
2019-06-07T23:40:00.098Z,18.19
2019-06-07T23:45:00.119Z,18
2019-06-07T23:50:00.120Z,17.94
2019-06-07T23:55:00.066Z,17.88
